Aviation Digital Data Service (ADDS)

Output produced by METARs form (1552 UTC 01 March 2021)
found at http://aviationweather.gov/metar/data/
 
METAR text: KEEO 011453Z AUTO 35003KT 10SM CLR M13/M19 A3040 RMK AO2 SLP369 T11331189 53007
Conditions at: KEEO (MEEKER , CO, US) observed 1453 UTC 01 March 2021
Temperature: -13.3°C ( 8°F)
Dewpoint: -18.9°C (-2°F) [RH = 63%]
Pressure (altimeter): 30.40 inches Hg (1029.5 mb)
[Sea-level pressure: 1036.9 mb]
Winds: from the N (350 degrees) at 3 MPH (3 knots; 1.5 m/s)
Visibility: 10 or more miles (16+ km)
Ceiling: at least 12,000 feet AGL
Clouds: sky clear below 12,000 feet AGL
Weather: automated observation with no human augmentation;
there may or may not be significant weather present at this time